Airfield :
LOGIN :

Register | Disclaimer

   EN    FR    IT 

 










Legend :    VFR   Marginal VFR   IFR   Intensive IFR   Very Intensive IFR
Visi :
Ceiling :
>= 8 km
>= 3000ft
5 to 8 km
1000 to 3000 ft
1500m to 5 km
500 to 1000 ft
800 to 1500m
200 to 500 ft
< 800m
< 200 ft
Symbols :   Thunderstorms  Fog  Heavy snow  Heavy precipitations  Wind > 20 kt
SIGMETs :     Misc.  Thunderstorms  Icing  Turbulence  Mountain Waves  Volcanic Ashes






- Airport Elevation : 42 ft
- IATA code : KGD


UMKK - Khrabrava - Kaliningrad

CURRENT METAR :
  • 180830Z 02004MPS 350V060 CAVOK 13/07 Q1021 R24/95D NOSIG RMK QFE764/1019

EXPIRED METARs :
  • 180800Z 36002MPS 310V070 CAVOK 13/07 Q1021 R24/95D NOSIG RMK QFE764/1019
  • 180730Z 03002MPS 360V060 CAVOK 12/07 Q1021 R24/CLRD95 NOSIG RMK QFE764/1019
  • 180700Z 03003MPS 360V060 CAVOK 11/06 Q1021 R24/95D NOSIG RMK QFE764/1019
  • 180630Z 07003MPS 040V100 CAVOK 11/06 Q1021 R24/CLRD95 NOSIG RMK QFE764/1019
  • 180600Z 05003MPS CAVOK 10/06 Q1021 R24/95D NOSIG RMK QFE764/1019

TAF TAF UMKK
Valid from the 18 at 09:00 until the 19 at 09:00 UTC


180759Z 1809/1909 35003G08MPS CAVOK
TEMPO 1809/1818 02005MPS
BECMG 1820/1822 07003G08MPS



MET'MAP, your aeronautical weather chart ! - Copyright ORBIFLY December 2007 - Disclaimer

ORBIFLY MET'MAP TEAM :

Programming & Development : Alexandra Zaïnal
Concept & original design : Baudouin d'Aumeries
Assistance for programming : Marc-Olivier Méhu
Technical & hardware support : Manuel Goepfert

Contact : metmap@orbifly.com




SOURCES & CREDITS :

   NOAA